Harmon, Louisiana
Current Conditions -  °F | °C
As of 5:15 PM on Monday 22 Dec 2014 (Local Time) from KIER Reporting Station
Scattered Clouds Scattered Clouds  
Wind Chill: 68°   Ceiling: Unl
Heat Index: 68°   Visibility: 10mi
Dew Point: 61°   Wind: 3mph
Humidity: 80%   Direction: 210°SSW
Pressure: 29.59"   Gusts: NA
Location:  32.07°N, 93.43°W
Report Text: KIER 222315Z AUTO 21003KT 10SM SCT039 SCT045 20/16 A2959 RMK AO2 T01980163
Loading
Personal Weather Stations






























Interactive Weather Map New forecast layout! Learn more

10-Day Weather Forecast

Advertisements
Track Severe Weather on mobile